Racecast

Noah Gustafson

Fossil Ridge (CO) · 11 · FRONT RANGECO D5A5A · Compare head to head

Athlete rating 114.1 2025 XC season
Best race 117.0 XC
Races 88
Seasons 4 2023 — 2026

RankedNation #31535·CO #757·CO D5A #476·FRONT RANGE #118·Team #35 ?

Speed rating — all races

Cross Country

XC speed rating

2025 XC 112.0

Fossil Ridge (CO) · Grade 11

Date Meet Event Result Place Rating Difficulty PR/SR Flags
2025-10-10 Spring Canyon Park 5000m 17:53.6 9th · 9th on team 117.0 +0.037 ★PR ★CR ★R SR CSR RSR
2025-09-26 North Lake Park 5000m 19:06 9th · 8th on team 111.7 +0.041 ★CR CSR
2025-09-13 Heritage High School 5000m 18:26.7 20th · 6th on team 110.7 -0.001 ★CR CSR
2025-08-30 Fort Collins High School 5000m 18:22 9th · 7th on team 113.4 +0.023 PR ★CR R SR CSR RSR
2025-08-23 Spring Canyon Park 5000m 19:26 19th · 12th on team 107.2 +0.037 CR SR CSR RSR

2024 XC 109.8

Fossil Ridge (CO) · Grade 10

Date Meet Event Result Place Rating Difficulty PR/SR Flags
2024-09-21 Lyons Middle/High School 5000m 19:09.2 33rd · 9th on team 111.9 +0.046 ★CR CSR
2024-09-06 Margaret W. Carpenter Recreation Center 5000m 19:39.2 18th · 5th on team 105.5 +0.014 ★CR CSR
2024-08-31 Fort Collins High School 5000m 18:52 18th · 11th on team 112.1 +0.023 PR CR R SR CSR RSR

2023 XC 98.5

Fossil Ridge (CO) · Grade 9

Date Meet Event Result Place Rating Difficulty PR/SR Flags
2023-09-09 Heritage High School 5000m 20:58.9 107th · 12th on team 99.1 -0.001 CR CSR
2023-09-03 Little America Golf Course 5000m 22:38.6 60th · 10th on team 96.9 +0.065 ★CR CSR
2023-08-26 Fort Collins High School 5000m 20:04 28th · 7th on team 103.3 +0.023 PR CR R SR CSR RSR
2023-08-19 Spring Canyon Park 5000m 22:53 45th · 17th on team 94.6 +0.037 PR CR R SR CSR RSR

Track & Field

TF speed rating

2026 TF

Fossil Ridge (CO) · Grade 11

Date Meet Event Result Place Rating Difficulty PR/SR Flags
2026-05-16 CHSAA State Championship tj 46-01.75 -0.011
2026-05-16 CHSAA State Championship 110mh 14.52 10th · 2nd on team -0.011
2026-05-16 CHSAA State Championship 300mh 39.79 22nd · 2nd on team -0.011
2026-05-16 CHSAA State Championship 110mh 14.41 9th · 1st on team -0.011
2026-05-16 CHSAA State Championship 300mh 38.34 11th · 1st on team -0.011 ★PR SR
2026-05-09 Teddy's Last Chance tj 44-06.50 -0.014
2026-05-09 Teddy's Last Chance 110mh 14.31 2nd · 1st on team -0.014 ★PR SR
2026-04-29 Longs Peak and Northern Conference Championships lj 21-03.25 -0.014
2026-04-29 Longs Peak and Northern Conference Championships tj 44-08.00 -0.014
2026-04-29 Longs Peak and Northern Conference Championships 110mh 14.52 3rd · 1st on team -0.014 PR SR
2026-04-29 Longs Peak and Northern Conference Championships 300mh 38.4 1st · 1st on team -0.014 PR SR
2026-04-29 Longs Peak and Northern Conference Championships 110mh 14.53 4th · 2nd on team -0.014
2026-04-23 Stutler Twilight 300mh 38.88 3rd · 1st on team -0.014 PR SR
2026-04-23 Stutler Twilight 110mh 14.91 9th · 1st on team -0.014
2026-04-18 Randall Hess Roughrider Invitational tj 45-02.00 -0.014
2026-04-10 The Pomona Invitational tj 45-2 -0.011
2026-04-10 The Pomona Invitational lj 20-2.75 -0.011
2026-04-10 Pomona Invite tj 45-2 -0.011
2026-04-10 Pomona Invite lj 20-2.75 -0.011
2026-04-10 The Pomona Invitational 110mh 14.79 13th · 2nd on team -0.011
2026-04-10 Pomona Invite 110mh 14.79 13th · 2nd on team -0.011
2026-04-10 The Pomona Invitational 300mh 39.37 8th · 1st on team -0.011
2026-04-10 Pomona Invite 300mh 39.37 8th · 1st on team -0.011
2026-04-10 The Pomona Invitational 110mh 14.6 11th · 1st on team -0.011 PR SR
2026-04-10 Pomona Invite 110mh 14.6 11th · 1st on team -0.011
2026-04-08 Randy Yaussi PSD Meet tj 44-04.75 -0.012
2026-04-08 Randy Yaussi PSD Meet 300mh 38.99 1st · 1st on team -0.012 PR SR
2026-04-08 Randy Yaussi PSD Meet 110mh 14.73 1st · 1st on team -0.012 PR SR
2026-04-04 Altitude Running Invitational tj 44-09.50 -0.012
2026-04-04 Altitude Running Invitational 110mh 15.03 4th · 1st on team -0.012
2026-04-04 Altitude Running Invitational 300mh 40.14 3rd · 1st on team -0.012 SR
2026-03-28 Niwot Invitational lj 21-01.50 -0.014
2026-03-28 Niwot Invitational 110mh 14.97 5th · 1st on team -0.014 PR SR
2026-03-28 Niwot Invitational 200m 23.17 17th · 1st on team -0.014 ★PR SR
2026-03-21 Runners Roost of Fort Collins Invitational tj 43-08.25 -0.012
2026-03-21 Runners Roost of Fort Collins Invitational 300mh 40.6 1st · 1st on team -0.012
2026-03-21 Runners Roost of Fort Collins Invitational 110mh 15.18 2nd · 1st on team -0.012 SR
2026-03-07 John Martin Early Bird Invite tj 44-03.75 -0.011
2026-03-07 John Martin Early Bird Invite 300mh 40.37 2nd · 1st on team -0.011 SR
2026-03-07 John Martin Early Bird Invite 110mh 15.88 3rd · 1st on team -0.011 SR
2026-02-14 Northern Colorado Pre-Season Classic 400m 53.56 8th · 4th on team -0.011 ★PR SR
2026-02-14 Northern Colorado Pre-Season Classic 100m 11.93 23rd · 11th on team -0.011 ★PR SR
2026-01-29 Mines Indoor HS Meet Series #5 tj 43-05.00 -0.012
2026-01-29 Mines Indoor HS Meet Series #5 60mh 8.58 8th · 1st on team -0.012 ★PR SR

2025 TF

Fossil Ridge (CO) · Grade 10

Date Meet Event Result Place Rating Difficulty PR/SR Flags
2025-05-15 CHSAA State Track & Field Championships tj 42-09.75 -0.011
2025-05-15 CHSAA State Track & Field Championships 110mh 15.15 15th · 1st on team -0.011 PR SR
2025-05-10 Teddy's Last Chance Qualifier tj 44-03.00 -0.014
2025-05-10 Teddy's Last Chance Qualifier 300mh 40.14 7th · 1st on team -0.014 PR SR
2025-04-30 Northern Conference League Meet tj 43' 6" -0.008
2025-04-30 Northern Conference League Meet 300mh 41.28 8th · 1st on team -0.008
2025-04-30 Northern Conference League Meet 110mh 15.23 8th · 1st on team -0.008 PR SR
2025-04-30 Northern Conference League Meet 110mh 15.26 11th · 2nd on team -0.008
2025-04-19 Randall Hess Roughrider Invitational tj 42-04.75 -0.014
2025-04-19 Randall Hess Roughrider Invitational 300mh 40.3 4th · 1st on team -0.014 PR SR
2025-04-19 Randall Hess Roughrider Invitational 110mh 15.92 10th · 1st on team -0.014
2025-04-12 Pomona Invite Day #2 tj 41-09.00 -0.011
2025-04-11 Pomona Invite Day #1 lj 19-01.50 -0.011
2025-04-11 Pomona Invite Day #1 300mh 41.31 18th · 1st on team -0.011
2025-04-11 Pomona Invite Day #1 110mh 15.52 13th · 1st on team -0.011 PR SR
2025-04-05 Altitude Running Invite tj 41-06.50 -0.012
2025-04-05 Altitude Running Invite 300mh 41.23 4th · 1st on team -0.012 PR SR
2025-04-05 Altitude Running Invite 110mh 16.54 8th · 1st on team -0.012 SR
2025-04-05 Altitude Running Invite 200m 23.88 25th · 3rd on team -0.012 PR SR
2025-03-15 Murray Kula Invitational tj 41-01.50 -0.008
2025-03-15 Murray Kula Invitational 300mh 42.26 4th · 1st on team -0.008 PR SR
2025-03-15 Murray Kula Invitational 110mh 16.72 6th · 1st on team -0.008 SR

2024 TF

Fossil Ridge (CO) · Grade 9

Date Meet Event Result Place Rating Difficulty PR/SR Flags
2024-05-10 HOKA St. Vrain Invitational tj 42-00.50 -0.015
2024-05-10 HOKA St. Vrain Invitational 110mh 16.39 24th · 1st on team -0.015 PR SR
2024-05-10 HOKA St. Vrain Invitational 300mh 44.02 39th · 1st on team -0.015 PR SR
2024-05-03 Front Range League Championships tj 39-06.00 -0.009
2024-05-03 Front Range League Championships 110mh 17.28 24th · 3rd on team -0.009 PR SR
2024-04-19 Huskie Twilight 110mh 17.79 10th · 2nd on team -0.003 PR SR
2024-04-19 Huskie Twilight 300mh 45.77 5th · 3rd on team -0.003
2024-04-04 Altitude Running Invitational tj 38-11.50 -0.009
2024-04-04 Altitude Running Invitational 300mh 45.26 18th · 1st on team -0.009
2024-03-23 Broomfield Shootout 300mh 44.86 31st · 1st on team -0.012 PR SR